sensor_id;sensor_type;location;lat;lon;timestamp;P1;durP1;ratioP1;P2;durP2;ratioP2
80621;SDS011;69980;51.914;7.526;2023-11-21T00:01:48;9.10;;;6.32;;
80621;SDS011;69980;51.914;7.526;2023-11-21T00:04:14;7.32;;;5.25;;
80621;SDS011;69980;51.914;7.526;2023-11-21T00:06:39;10.77;;;6.65;;
80621;SDS011;69980;51.914;7.526;2023-11-21T00:09:04;8.80;;;6.95;;
80621;SDS011;69980;51.914;7.526;2023-11-21T00:11:29;9.90;;;6.63;;
80621;SDS011;69980;51.914;7.526;2023-11-21T00:13:55;10.43;;;7.00;;
80621;SDS011;69980;51.914;7.526;2023-11-21T00:16:20;11.45;;;7.40;;
80621;SDS011;69980;51.914;7.526;2023-11-21T00:18:46;7.93;;;6.03;;
80621;SDS011;69980;51.914;7.526;2023-11-21T00:21:11;7.22;;;6.05;;
80621;SDS011;69980;51.914;7.526;2023-11-21T00:23:36;9.40;;;6.95;;
80621;SDS011;69980;51.914;7.526;2023-11-21T00:26:01;10.57;;;7.15;;
80621;SDS011;69980;51.914;7.526;2023-11-21T00:28:27;8.80;;;7.13;;
80621;SDS011;69980;51.914;7.526;2023-11-21T00:30:52;9.00;;;6.65;;
80621;SDS011;69980;51.914;7.526;2023-11-21T00:33:17;10.55;;;7.03;;
80621;SDS011;69980;51.914;7.526;2023-11-21T00:35:43;11.52;;;7.07;;
80621;SDS011;69980;51.914;7.526;2023-11-21T00:38:08;11.70;;;7.80;;
80621;SDS011;69980;51.914;7.526;2023-11-21T00:40:33;9.55;;;7.38;;
80621;SDS011;69980;51.914;7.526;2023-11-21T00:42:58;11.85;;;7.90;;
80621;SDS011;69980;51.914;7.526;2023-11-21T00:45:24;14.60;;;8.52;;
80621;SDS011;69980;51.914;7.526;2023-11-21T00:47:49;14.63;;;9.25;;
80621;SDS011;69980;51.914;7.526;2023-11-21T00:50:14;13.95;;;8.55;;
80621;SDS011;69980;51.914;7.526;2023-11-21T00:52:40;15.68;;;8.55;;
80621;SDS011;69980;51.914;7.526;2023-11-21T00:55:05;11.20;;;7.40;;
80621;SDS011;69980;51.914;7.526;2023-11-21T00:57:31;10.70;;;7.75;;
80621;SDS011;69980;51.914;7.526;2023-11-21T00:59:56;12.65;;;8.88;;
80621;SDS011;69980;51.914;7.526;2023-11-21T01:02:22;14.23;;;8.75;;
80621;SDS011;69980;51.914;7.526;2023-11-21T01:04:47;12.73;;;8.77;;
80621;SDS011;69980;51.914;7.526;2023-11-21T01:07:12;12.70;;;8.48;;
80621;SDS011;69980;51.914;7.526;2023-11-21T01:09:37;10.70;;;7.90;;
80621;SDS011;69980;51.914;7.526;2023-11-21T01:12:03;13.20;;;8.52;;
80621;SDS011;69980;51.914;7.526;2023-11-21T01:14:29;13.88;;;8.90;;
80621;SDS011;69980;51.914;7.526;2023-11-21T01:16:54;13.25;;;9.18;;
80621;SDS011;69980;51.914;7.526;2023-11-21T01:19:19;11.10;;;8.20;;
80621;SDS011;69980;51.914;7.526;2023-11-21T01:21:45;12.48;;;8.57;;
80621;SDS011;69980;51.914;7.526;2023-11-21T01:24:10;12.07;;;7.95;;
80621;SDS011;69980;51.914;7.526;2023-11-21T01:26:35;12.43;;;8.88;;
80621;SDS011;69980;51.914;7.526;2023-11-21T01:29:01;12.88;;;8.45;;
80621;SDS011;69980;51.914;7.526;2023-11-21T01:31:26;10.18;;;8.48;;
80621;SDS011;69980;51.914;7.526;2023-11-21T01:33:51;13.60;;;9.15;;
80621;SDS011;69980;51.914;7.526;2023-11-21T01:36:17;10.73;;;8.80;;
80621;SDS011;69980;51.914;7.526;2023-11-21T01:38:42;12.32;;;8.55;;
80621;SDS011;69980;51.914;7.526;2023-11-21T01:41:07;14.38;;;10.18;;
80621;SDS011;69980;51.914;7.526;2023-11-21T01:43:33;13.70;;;9.32;;
80621;SDS011;69980;51.914;7.526;2023-11-21T01:45:58;12.02;;;8.60;;
80621;SDS011;69980;51.914;7.526;2023-11-21T01:48:23;11.48;;;8.18;;
80621;SDS011;69980;51.914;7.526;2023-11-21T01:50:49;12.95;;;8.90;;
80621;SDS011;69980;51.914;7.526;2023-11-21T01:53:15;13.60;;;8.25;;
80621;SDS011;69980;51.914;7.526;2023-11-21T01:55:41;13.10;;;9.38;;
80621;SDS011;69980;51.914;7.526;2023-11-21T01:58:07;13.38;;;8.07;;
80621;SDS011;69980;51.914;7.526;2023-11-21T02:00:32;13.40;;;9.45;;
80621;SDS011;69980;51.914;7.526;2023-11-21T02:02:58;12.32;;;9.02;;
80621;SDS011;69980;51.914;7.526;2023-11-21T02:05:23;16.15;;;9.85;;
80621;SDS011;69980;51.914;7.526;2023-11-21T02:07:48;14.57;;;9.57;;
80621;SDS011;69980;51.914;7.526;2023-11-21T02:10:14;15.85;;;9.82;;
80621;SDS011;69980;51.914;7.526;2023-11-21T02:12:40;16.02;;;10.02;;
80621;SDS011;69980;51.914;7.526;2023-11-21T02:15:06;14.93;;;9.73;;
80621;SDS011;69980;51.914;7.526;2023-11-21T02:17:32;13.50;;;10.20;;
80621;SDS011;69980;51.914;7.526;2023-11-21T02:19:58;15.38;;;11.18;;
80621;SDS011;69980;51.914;7.526;2023-11-21T02:22:23;16.70;;;10.73;;
80621;SDS011;69980;51.914;7.526;2023-11-21T02:24:50;18.80;;;11.60;;
80621;SDS011;69980;51.914;7.526;2023-11-21T02:27:15;15.23;;;10.93;;
80621;SDS011;69980;51.914;7.526;2023-11-21T02:29:41;21.70;;;12.65;;
80621;SDS011;69980;51.914;7.526;2023-11-21T02:32:06;17.13;;;11.20;;
80621;SDS011;69980;51.914;7.526;2023-11-21T02:34:31;15.88;;;10.15;;
80621;SDS011;69980;51.914;7.526;2023-11-21T02:36:57;13.70;;;9.70;;
80621;SDS011;69980;51.914;7.526;2023-11-21T02:39:22;13.70;;;10.07;;
80621;SDS011;69980;51.914;7.526;2023-11-21T02:41:47;15.02;;;10.95;;
80621;SDS011;69980;51.914;7.526;2023-11-21T02:44:13;18.98;;;11.98;;
80621;SDS011;69980;51.914;7.526;2023-11-21T02:46:38;16.63;;;11.63;;
80621;SDS011;69980;51.914;7.526;2023-11-21T02:49:03;17.23;;;10.60;;
80621;SDS011;69980;51.914;7.526;2023-11-21T02:51:29;20.92;;;13.48;;
80621;SDS011;69980;51.914;7.526;2023-11-21T02:53:55;20.38;;;11.10;;
80621;SDS011;69980;51.914;7.526;2023-11-21T02:56:20;20.95;;;12.27;;
80621;SDS011;69980;51.914;7.526;2023-11-21T02:58:46;24.80;;;13.60;;
80621;SDS011;69980;51.914;7.526;2023-11-21T03:01:11;25.65;;;13.50;;
80621;SDS011;69980;51.914;7.526;2023-11-21T03:03:37;25.58;;;12.98;;
80621;SDS011;69980;51.914;7.526;2023-11-21T03:06:02;20.55;;;11.45;;
80621;SDS011;69980;51.914;7.526;2023-11-21T03:08:27;19.10;;;10.60;;
80621;SDS011;69980;51.914;7.526;2023-11-21T03:10:53;20.98;;;11.80;;
80621;SDS011;69980;51.914;7.526;2023-11-21T03:13:18;18.70;;;10.98;;
80621;SDS011;69980;51.914;7.526;2023-11-21T03:15:43;21.58;;;11.55;;
80621;SDS011;69980;51.914;7.526;2023-11-21T03:18:08;22.85;;;11.85;;
80621;SDS011;69980;51.914;7.526;2023-11-21T03:20:34;19.10;;;11.65;;
80621;SDS011;69980;51.914;7.526;2023-11-21T03:22:59;19.75;;;11.38;;
80621;SDS011;69980;51.914;7.526;2023-11-21T03:25:24;19.13;;;10.52;;
80621;SDS011;69980;51.914;7.526;2023-11-21T03:27:50;17.95;;;10.20;;
80621;SDS011;69980;51.914;7.526;2023-11-21T03:30:15;19.23;;;11.00;;
80621;SDS011;69980;51.914;7.526;2023-11-21T03:32:41;12.98;;;9.60;;
80621;SDS011;69980;51.914;7.526;2023-11-21T03:35:06;12.75;;;9.13;;
80621;SDS011;69980;51.914;7.526;2023-11-21T03:37:31;15.73;;;10.30;;
80621;SDS011;69980;51.914;7.526;2023-11-21T03:39:57;18.52;;;11.13;;
80621;SDS011;69980;51.914;7.526;2023-11-21T03:42:22;17.17;;;11.57;;
80621;SDS011;69980;51.914;7.526;2023-11-21T03:44:47;17.98;;;11.40;;
80621;SDS011;69980;51.914;7.526;2023-11-21T03:47:12;18.15;;;10.60;;
80621;SDS011;69980;51.914;7.526;2023-11-21T03:49:38;20.75;;;10.40;;
80621;SDS011;69980;51.914;7.526;2023-11-21T03:52:03;16.30;;;10.20;;
80621;SDS011;69980;51.914;7.526;2023-11-21T03:54:29;15.85;;;9.95;;
80621;SDS011;69980;51.914;7.526;2023-11-21T03:56:54;15.85;;;10.00;;
80621;SDS011;69980;51.914;7.526;2023-11-21T03:59:19;16.70;;;10.13;;
80621;SDS011;69980;51.914;7.526;2023-11-21T04:01:44;23.08;;;11.90;;
80621;SDS011;69980;51.914;7.526;2023-11-21T04:04:10;21.80;;;11.20;;
80621;SDS011;69980;51.914;7.526;2023-11-21T04:06:36;23.10;;;12.35;;
80621;SDS011;69980;51.914;7.526;2023-11-21T04:09:01;19.10;;;10.55;;
80621;SDS011;69980;51.914;7.526;2023-11-21T04:11:26;24.52;;;12.68;;
80621;SDS011;69980;51.914;7.526;2023-11-21T04:13:51;20.25;;;11.93;;
80621;SDS011;69980;51.914;7.526;2023-11-21T04:16:17;30.17;;;13.85;;
80621;SDS011;69980;51.914;7.526;2023-11-21T04:18:42;29.77;;;15.20;;
80621;SDS011;69980;51.914;7.526;2023-11-21T04:21:07;26.10;;;14.57;;
80621;SDS011;69980;51.914;7.526;2023-11-21T04:23:33;34.80;;;16.33;;
80621;SDS011;69980;51.914;7.526;2023-11-21T04:25:59;32.78;;;16.02;;
80621;SDS011;69980;51.914;7.526;2023-11-21T04:28:24;34.17;;;15.63;;
80621;SDS011;69980;51.914;7.526;2023-11-21T04:30:50;30.25;;;14.45;;
80621;SDS011;69980;51.914;7.526;2023-11-21T04:33:15;37.70;;;15.70;;
80621;SDS011;69980;51.914;7.526;2023-11-21T04:35:40;37.20;;;16.40;;
80621;SDS011;69980;51.914;7.526;2023-11-21T04:38:06;34.28;;;16.30;;
80621;SDS011;69980;51.914;7.526;2023-11-21T04:40:31;26.40;;;14.57;;
80621;SDS011;69980;51.914;7.526;2023-11-21T04:42:56;34.38;;;16.83;;
80621;SDS011;69980;51.914;7.526;2023-11-21T04:45:22;29.92;;;14.18;;
80621;SDS011;69980;51.914;7.526;2023-11-21T04:47:48;33.65;;;15.95;;
80621;SDS011;69980;51.914;7.526;2023-11-21T04:50:13;35.25;;;16.15;;
80621;SDS011;69980;51.914;7.526;2023-11-21T04:52:39;26.65;;;13.77;;
80621;SDS011;69980;51.914;7.526;2023-11-21T04:55:04;33.97;;;16.00;;
80621;SDS011;69980;51.914;7.526;2023-11-21T04:57:30;33.10;;;16.10;;
80621;SDS011;69980;51.914;7.526;2023-11-21T04:59:55;33.45;;;16.15;;
80621;SDS011;69980;51.914;7.526;2023-11-21T05:02:20;29.55;;;14.85;;
80621;SDS011;69980;51.914;7.526;2023-11-21T05:04:45;33.30;;;15.55;;
80621;SDS011;69980;51.914;7.526;2023-11-21T05:07:11;28.70;;;14.63;;
80621;SDS011;69980;51.914;7.526;2023-11-21T05:09:36;29.95;;;15.10;;
80621;SDS011;69980;51.914;7.526;2023-11-21T05:12:06;31.25;;;15.43;;
80621;SDS011;69980;51.914;7.526;2023-11-21T05:14:31;28.58;;;15.27;;
80621;SDS011;69980;51.914;7.526;2023-11-21T05:16:57;26.98;;;14.80;;
80621;SDS011;69980;51.914;7.526;2023-11-21T05:19:22;26.98;;;15.30;;
80621;SDS011;69980;51.914;7.526;2023-11-21T05:21:49;26.45;;;14.15;;
80621;SDS011;69980;51.914;7.526;2023-11-21T05:24:14;29.08;;;14.77;;
80621;SDS011;69980;51.914;7.526;2023-11-21T05:26:39;25.70;;;14.38;;
80621;SDS011;69980;51.914;7.526;2023-11-21T05:29:05;28.40;;;15.05;;
80621;SDS011;69980;51.914;7.526;2023-11-21T05:31:30;28.40;;;15.52;;
80621;SDS011;69980;51.914;7.526;2023-11-21T05:33:55;27.85;;;15.05;;
80621;SDS011;69980;51.914;7.526;2023-11-21T05:36:20;28.92;;;16.10;;
80621;SDS011;69980;51.914;7.526;2023-11-21T05:38:46;23.60;;;13.63;;
80621;SDS011;69980;51.914;7.526;2023-11-21T05:41:11;24.67;;;14.02;;
80621;SDS011;69980;51.914;7.526;2023-11-21T05:43:36;26.80;;;14.18;;
80621;SDS011;69980;51.914;7.526;2023-11-21T05:46:02;28.05;;;14.43;;
80621;SDS011;69980;51.914;7.526;2023-11-21T05:48:27;23.67;;;12.88;;
80621;SDS011;69980;51.914;7.526;2023-11-21T05:50:52;22.70;;;13.20;;
80621;SDS011;69980;51.914;7.526;2023-11-21T05:53:18;26.08;;;13.63;;
80621;SDS011;69980;51.914;7.526;2023-11-21T05:55:43;24.65;;;13.32;;
80621;SDS011;69980;51.914;7.526;2023-11-21T05:58:08;27.52;;;14.57;;
80621;SDS011;69980;51.914;7.526;2023-11-21T06:00:33;31.35;;;15.27;;
80621;SDS011;69980;51.914;7.526;2023-11-21T06:02:59;30.70;;;16.13;;
80621;SDS011;69980;51.914;7.526;2023-11-21T06:05:24;29.85;;;15.85;;
80621;SDS011;69980;51.914;7.526;2023-11-21T06:07:51;32.10;;;16.75;;
80621;SDS011;69980;51.914;7.526;2023-11-21T06:10:17;25.27;;;14.50;;
80621;SDS011;69980;51.914;7.526;2023-11-21T06:12:42;30.35;;;15.93;;
80621;SDS011;69980;51.914;7.526;2023-11-21T06:15:07;27.63;;;16.13;;
80621;SDS011;69980;51.914;7.526;2023-11-21T06:17:34;26.98;;;15.38;;
80621;SDS011;69980;51.914;7.526;2023-11-21T06:20:00;26.55;;;15.80;;
80621;SDS011;69980;51.914;7.526;2023-11-21T06:22:26;29.38;;;14.77;;
80621;SDS011;69980;51.914;7.526;2023-11-21T06:24:51;26.40;;;13.95;;
80621;SDS011;69980;51.914;7.526;2023-11-21T06:27:16;24.52;;;13.30;;
80621;SDS011;69980;51.914;7.526;2023-11-21T06:29:41;31.60;;;15.73;;
80621;SDS011;69980;51.914;7.526;2023-11-21T06:32:07;31.65;;;14.93;;
80621;SDS011;69980;51.914;7.526;2023-11-21T06:34:32;27.55;;;14.13;;
80621;SDS011;69980;51.914;7.526;2023-11-21T06:36:57;29.20;;;13.80;;
80621;SDS011;69980;51.914;7.526;2023-11-21T06:39:22;27.38;;;14.45;;
80621;SDS011;69980;51.914;7.526;2023-11-21T06:41:49;29.48;;;14.10;;
80621;SDS011;69980;51.914;7.526;2023-11-21T06:44:15;28.45;;;14.98;;
80621;SDS011;69980;51.914;7.526;2023-11-21T06:46:40;29.58;;;15.35;;
80621;SDS011;69980;51.914;7.526;2023-11-21T06:49:05;32.42;;;15.18;;
80621;SDS011;69980;51.914;7.526;2023-11-21T06:51:30;31.10;;;14.77;;
80621;SDS011;69980;51.914;7.526;2023-11-21T06:53:56;31.52;;;15.07;;
80621;SDS011;69980;51.914;7.526;2023-11-21T06:56:21;32.28;;;14.73;;
80621;SDS011;69980;51.914;7.526;2023-11-21T06:58:46;29.80;;;13.45;;
80621;SDS011;69980;51.914;7.526;2023-11-21T07:01:13;41.92;;;16.95;;
80621;SDS011;69980;51.914;7.526;2023-11-21T07:03:38;37.08;;;15.27;;
80621;SDS011;69980;51.914;7.526;2023-11-21T07:06:04;40.22;;;15.60;;
80621;SDS011;69980;51.914;7.526;2023-11-21T07:08:29;38.25;;;15.10;;
80621;SDS011;69980;51.914;7.526;2023-11-21T07:10:55;37.55;;;16.42;;
80621;SDS011;69980;51.914;7.526;2023-11-21T07:13:20;37.65;;;16.17;;
80621;SDS011;69980;51.914;7.526;2023-11-21T07:15:45;36.75;;;15.88;;
80621;SDS011;69980;51.914;7.526;2023-11-21T07:18:11;36.67;;;15.82;;
80621;SDS011;69980;51.914;7.526;2023-11-21T07:20:36;42.00;;;16.08;;
80621;SDS011;69980;51.914;7.526;2023-11-21T07:23:01;37.13;;;16.00;;
80621;SDS011;69980;51.914;7.526;2023-11-21T07:25:27;46.38;;;16.92;;
80621;SDS011;69980;51.914;7.526;2023-11-21T07:27:52;35.63;;;15.70;;
80621;SDS011;69980;51.914;7.526;2023-11-21T07:30:17;38.13;;;15.38;;
80621;SDS011;69980;51.914;7.526;2023-11-21T07:32:42;37.85;;;15.65;;
80621;SDS011;69980;51.914;7.526;2023-11-21T07:35:08;36.63;;;16.50;;
80621;SDS011;69980;51.914;7.526;2023-11-21T07:37:33;33.45;;;15.77;;
80621;SDS011;69980;51.914;7.526;2023-11-21T07:39:58;38.53;;;16.63;;
80621;SDS011;69980;51.914;7.526;2023-11-21T07:42:24;34.92;;;16.00;;
80621;SDS011;69980;51.914;7.526;2023-11-21T07:44:49;37.65;;;16.70;;
80621;SDS011;69980;51.914;7.526;2023-11-21T07:47:15;36.13;;;16.23;;
80621;SDS011;69980;51.914;7.526;2023-11-21T07:49:47;33.95;;;15.63;;
80621;SDS011;69980;51.914;7.526;2023-11-21T07:52:13;33.40;;;15.85;;
80621;SDS011;69980;51.914;7.526;2023-11-21T07:54:38;38.83;;;17.55;;
80621;SDS011;69980;51.914;7.526;2023-11-21T07:57:03;35.55;;;16.85;;
80621;SDS011;69980;51.914;7.526;2023-11-21T07:59:29;34.00;;;16.15;;
80621;SDS011;69980;51.914;7.526;2023-11-21T08:01:54;31.75;;;15.60;;
80621;SDS011;69980;51.914;7.526;2023-11-21T08:04:19;41.10;;;16.65;;
80621;SDS011;69980;51.914;7.526;2023-11-21T08:06:45;34.28;;;15.95;;
80621;SDS011;69980;51.914;7.526;2023-11-21T08:09:10;31.38;;;15.00;;
80621;SDS011;69980;51.914;7.526;2023-11-21T08:11:35;30.88;;;15.75;;
80621;SDS011;69980;51.914;7.526;2023-11-21T08:14:00;32.50;;;16.42;;
80621;SDS011;69980;51.914;7.526;2023-11-21T08:16:26;38.38;;;17.95;;
80621;SDS011;69980;51.914;7.526;2023-11-21T08:18:51;37.42;;;16.92;;
80621;SDS011;69980;51.914;7.526;2023-11-21T08:21:16;31.42;;;15.80;;
80621;SDS011;69980;51.914;7.526;2023-11-21T08:23:42;31.48;;;16.42;;
80621;SDS011;69980;51.914;7.526;2023-11-21T08:26:07;29.63;;;15.40;;
80621;SDS011;69980;51.914;7.526;2023-11-21T08:28:33;29.10;;;16.17;;
80621;SDS011;69980;51.914;7.526;2023-11-21T08:30:58;26.95;;;14.70;;
80621;SDS011;69980;51.914;7.526;2023-11-21T08:33:23;28.48;;;15.25;;
80621;SDS011;69980;51.914;7.526;2023-11-21T08:35:49;27.75;;;15.32;;
80621;SDS011;69980;51.914;7.526;2023-11-21T08:38:14;24.80;;;14.43;;
80621;SDS011;69980;51.914;7.526;2023-11-21T08:40:39;27.88;;;15.15;;
80621;SDS011;69980;51.914;7.526;2023-11-21T08:43:04;24.60;;;13.75;;
80621;SDS011;69980;51.914;7.526;2023-11-21T08:45:30;27.98;;;16.13;;
80621;SDS011;69980;51.914;7.526;2023-11-21T08:47:55;27.23;;;14.88;;
80621;SDS011;69980;51.914;7.526;2023-11-21T08:50:21;26.90;;;15.48;;
80621;SDS011;69980;51.914;7.526;2023-11-21T08:52:47;27.00;;;14.80;;
80621;SDS011;69980;51.914;7.526;2023-11-21T08:55:12;26.30;;;14.80;;
80621;SDS011;69980;51.914;7.526;2023-11-21T08:57:38;28.35;;;15.55;;
80621;SDS011;69980;51.914;7.526;2023-11-21T09:00:04;24.05;;;13.35;;
80621;SDS011;69980;51.914;7.526;2023-11-21T09:02:30;27.02;;;14.45;;
80621;SDS011;69980;51.914;7.526;2023-11-21T09:04:55;26.10;;;14.02;;
80621;SDS011;69980;51.914;7.526;2023-11-21T09:07:20;25.15;;;13.52;;
80621;SDS011;69980;51.914;7.526;2023-11-21T09:09:46;26.80;;;14.90;;
80621;SDS011;69980;51.914;7.526;2023-11-21T09:12:12;26.30;;;14.38;;
80621;SDS011;69980;51.914;7.526;2023-11-21T09:14:37;25.67;;;14.15;;
80621;SDS011;69980;51.914;7.526;2023-11-21T09:17:03;26.88;;;14.23;;
80621;SDS011;69980;51.914;7.526;2023-11-21T09:19:28;32.45;;;17.13;;
80621;SDS011;69980;51.914;7.526;2023-11-21T09:21:53;26.52;;;14.07;;
80621;SDS011;69980;51.914;7.526;2023-11-21T09:24:18;27.67;;;14.30;;
80621;SDS011;69980;51.914;7.526;2023-11-21T09:26:44;29.73;;;15.65;;
80621;SDS011;69980;51.914;7.526;2023-11-21T09:29:09;27.02;;;14.65;;
80621;SDS011;69980;51.914;7.526;2023-11-21T09:31:34;25.67;;;14.45;;
80621;SDS011;69980;51.914;7.526;2023-11-21T09:34:00;26.85;;;14.13;;
80621;SDS011;69980;51.914;7.526;2023-11-21T09:36:25;27.25;;;13.80;;
80621;SDS011;69980;51.914;7.526;2023-11-21T09:38:50;24.67;;;13.38;;
80621;SDS011;69980;51.914;7.526;2023-11-21T09:41:19;26.90;;;13.75;;
80621;SDS011;69980;51.914;7.526;2023-11-21T09:43:48;21.42;;;12.48;;
80621;SDS011;69980;51.914;7.526;2023-11-21T09:46:16;24.27;;;12.73;;
80621;SDS011;69980;51.914;7.526;2023-11-21T09:48:42;28.48;;;13.80;;
80621;SDS011;69980;51.914;7.526;2023-11-21T09:51:09;25.52;;;12.68;;
80621;SDS011;69980;51.914;7.526;2023-11-21T09:53:35;22.67;;;12.35;;
80621;SDS011;69980;51.914;7.526;2023-11-21T09:56:01;20.98;;;11.55;;
80621;SDS011;69980;51.914;7.526;2023-11-21T09:58:26;21.55;;;11.57;;
80621;SDS011;69980;51.914;7.526;2023-11-21T10:00:55;22.67;;;12.25;;
80621;SDS011;69980;51.914;7.526;2023-11-21T10:03:22;18.17;;;10.55;;
80621;SDS011;69980;51.914;7.526;2023-11-21T10:05:48;17.20;;;10.73;;
80621;SDS011;69980;51.914;7.526;2023-11-21T10:08:15;18.90;;;10.88;;
80621;SDS011;69980;51.914;7.526;2023-11-21T10:10:44;18.50;;;10.40;;
80621;SDS011;69980;51.914;7.526;2023-11-21T10:13:12;16.95;;;10.25;;
80621;SDS011;69980;51.914;7.526;2023-11-21T10:15:38;15.52;;;9.63;;
80621;SDS011;69980;51.914;7.526;2023-11-21T10:18:03;16.65;;;9.93;;
80621;SDS011;69980;51.914;7.526;2023-11-21T10:20:30;16.70;;;9.98;;
80621;SDS011;69980;51.914;7.526;2023-11-21T10:22:56;18.58;;;10.75;;
80621;SDS011;69980;51.914;7.526;2023-11-21T10:25:21;18.35;;;9.90;;
80621;SDS011;69980;51.914;7.526;2023-11-21T10:27:47;14.77;;;9.25;;
80621;SDS011;69980;51.914;7.526;2023-11-21T10:30:13;14.23;;;9.00;;
80621;SDS011;69980;51.914;7.526;2023-11-21T10:32:39;16.00;;;9.02;;
80621;SDS011;69980;51.914;7.526;2023-11-21T10:35:04;15.05;;;9.40;;
80621;SDS011;69980;51.914;7.526;2023-11-21T10:37:30;15.50;;;9.70;;
80621;SDS011;69980;51.914;7.526;2023-11-21T10:39:58;16.58;;;9.55;;
80621;SDS011;69980;51.914;7.526;2023-11-21T10:42:24;18.13;;;9.13;;
80621;SDS011;69980;51.914;7.526;2023-11-21T10:44:49;17.10;;;11.25;;
80621;SDS011;69980;51.914;7.526;2023-11-21T10:47:14;20.10;;;10.93;;
80621;SDS011;69980;51.914;7.526;2023-11-21T10:49:40;16.60;;;11.50;;
80621;SDS011;69980;51.914;7.526;2023-11-21T10:52:05;20.38;;;13.07;;
80621;SDS011;69980;51.914;7.526;2023-11-21T10:54:30;19.60;;;11.10;;
80621;SDS011;69980;51.914;7.526;2023-11-21T10:56:59;19.38;;;10.90;;
80621;SDS011;69980;51.914;7.526;2023-11-21T10:59:28;17.58;;;11.63;;
80621;SDS011;69980;51.914;7.526;2023-11-21T11:01:54;18.50;;;11.13;;
80621;SDS011;69980;51.914;7.526;2023-11-21T11:04:22;21.73;;;13.27;;
80621;SDS011;69980;51.914;7.526;2023-11-21T11:07:01;19.10;;;11.45;;
80621;SDS011;69980;51.914;7.526;2023-11-21T11:09:27;19.38;;;11.43;;
80621;SDS011;69980;51.914;7.526;2023-11-21T11:11:53;20.90;;;12.07;;
80621;SDS011;69980;51.914;7.526;2023-11-21T11:14:18;19.98;;;12.82;;
80621;SDS011;69980;51.914;7.526;2023-11-21T11:16:44;18.70;;;11.57;;
80621;SDS011;69980;51.914;7.526;2023-11-21T11:19:10;20.92;;;12.20;;
80621;SDS011;69980;51.914;7.526;2023-11-21T11:32:33;14.25;;;8.52;;
80621;SDS011;69980;51.914;7.526;2023-11-21T11:38:21;14.00;;;8.35;;
80621;SDS011;69980;51.914;7.526;2023-11-21T11:40:47;16.70;;;8.98;;
80621;SDS011;69980;51.914;7.526;2023-11-21T11:43:12;15.52;;;8.98;;
80621;SDS011;69980;51.914;7.526;2023-11-21T11:45:38;12.00;;;7.32;;
80621;SDS011;69980;51.914;7.526;2023-11-21T11:48:04;11.85;;;7.82;;
80621;SDS011;69980;51.914;7.526;2023-11-21T11:50:30;13.73;;;7.75;;
80621;SDS011;69980;51.914;7.526;2023-11-21T11:53:11;13.20;;;8.43;;
80621;SDS011;69980;51.914;7.526;2023-11-21T11:55:37;14.10;;;9.55;;
80621;SDS011;69980;51.914;7.526;2023-11-21T11:58:04;14.30;;;10.45;;
80621;SDS011;69980;51.914;7.526;2023-11-21T12:02:56;11.57;;;7.90;;
80621;SDS011;69980;51.914;7.526;2023-11-21T12:05:25;13.27;;;7.97;;
80621;SDS011;69980;51.914;7.526;2023-11-21T12:07:57;13.02;;;7.70;;
80621;SDS011;69980;51.914;7.526;2023-11-21T12:10:28;10.90;;;6.95;;
80621;SDS011;69980;51.914;7.526;2023-11-21T12:15:21;11.02;;;7.10;;
80621;SDS011;69980;51.914;7.526;2023-11-21T12:17:46;11.10;;;7.32;;
80621;SDS011;69980;51.914;7.526;2023-11-21T12:20:13;9.75;;;6.55;;
80621;SDS011;69980;51.914;7.526;2023-11-21T12:22:38;10.77;;;7.28;;
80621;SDS011;69980;51.914;7.526;2023-11-21T12:25:04;11.02;;;7.05;;
80621;SDS011;69980;51.914;7.526;2023-11-21T12:27:29;11.23;;;6.95;;
80621;SDS011;69980;51.914;7.526;2023-11-21T12:29:54;9.25;;;6.43;;
80621;SDS011;69980;51.914;7.526;2023-11-21T12:32:20;10.45;;;6.25;;
80621;SDS011;69980;51.914;7.526;2023-11-21T12:34:46;10.05;;;6.15;;
80621;SDS011;69980;51.914;7.526;2023-11-21T12:37:11;8.63;;;6.07;;
80621;SDS011;69980;51.914;7.526;2023-11-21T12:39:36;8.77;;;5.70;;
80621;SDS011;69980;51.914;7.526;2023-11-21T12:42:02;7.88;;;5.28;;
80621;SDS011;69980;51.914;7.526;2023-11-21T12:44:28;7.05;;;5.10;;
80621;SDS011;69980;51.914;7.526;2023-11-21T12:46:53;7.95;;;5.82;;
80621;SDS011;69980;51.914;7.526;2023-11-21T12:49:18;6.78;;;4.70;;
80621;SDS011;69980;51.914;7.526;2023-11-21T12:51:45;6.40;;;4.63;;
80621;SDS011;69980;51.914;7.526;2023-11-21T12:54:11;6.95;;;4.63;;
80621;SDS011;69980;51.914;7.526;2023-11-21T12:56:39;7.25;;;5.07;;
80621;SDS011;69980;51.914;7.526;2023-11-21T12:59:04;7.05;;;5.22;;
80621;SDS011;69980;51.914;7.526;2023-11-21T13:01:30;6.05;;;4.78;;
80621;SDS011;69980;51.914;7.526;2023-11-21T13:03:56;7.40;;;5.30;;
80621;SDS011;69980;51.914;7.526;2023-11-21T13:06:22;7.78;;;5.47;;
80621;SDS011;69980;51.914;7.526;2023-11-21T13:08:48;6.55;;;5.00;;
80621;SDS011;69980;51.914;7.526;2023-11-21T13:11:13;7.15;;;5.05;;
80621;SDS011;69980;51.914;7.526;2023-11-21T13:13:39;8.10;;;5.57;;
80621;SDS011;69980;51.914;7.526;2023-11-21T13:16:06;6.93;;;5.70;;
80621;SDS011;69980;51.914;7.526;2023-11-21T13:18:31;7.13;;;5.20;;
80621;SDS011;69980;51.914;7.526;2023-11-21T13:21:03;6.88;;;5.47;;
80621;SDS011;69980;51.914;7.526;2023-11-21T13:23:34;6.90;;;5.28;;
80621;SDS011;69980;51.914;7.526;2023-11-21T13:25:59;6.97;;;5.80;;
80621;SDS011;69980;51.914;7.526;2023-11-21T13:28:25;8.05;;;5.60;;
80621;SDS011;69980;51.914;7.526;2023-11-21T13:30:50;7.50;;;6.13;;
80621;SDS011;69980;51.914;7.526;2023-11-21T13:33:15;9.45;;;5.80;;
80621;SDS011;69980;51.914;7.526;2023-11-21T13:35:41;6.63;;;5.45;;
80621;SDS011;69980;51.914;7.526;2023-11-21T13:38:06;7.47;;;5.47;;
80621;SDS011;69980;51.914;7.526;2023-11-21T13:40:33;6.88;;;5.70;;
80621;SDS011;69980;51.914;7.526;2023-11-21T13:42:58;8.85;;;7.47;;
80621;SDS011;69980;51.914;7.526;2023-11-21T13:45:23;10.00;;;7.80;;
80621;SDS011;69980;51.914;7.526;2023-11-21T13:47:49;9.50;;;7.40;;
80621;SDS011;69980;51.914;7.526;2023-11-21T13:50:15;9.88;;;7.28;;
80621;SDS011;69980;51.914;7.526;2023-11-21T13:52:40;9.45;;;7.65;;
80621;SDS011;69980;51.914;7.526;2023-11-21T13:55:06;9.48;;;7.57;;
80621;SDS011;69980;51.914;7.526;2023-11-21T13:57:31;9.95;;;7.00;;
80621;SDS011;69980;51.914;7.526;2023-11-21T13:59:56;9.98;;;7.60;;
80621;SDS011;69980;51.914;7.526;2023-11-21T14:02:22;11.75;;;8.90;;
80621;SDS011;69980;51.914;7.526;2023-11-21T14:04:47;10.35;;;8.20;;
80621;SDS011;69980;51.914;7.526;2023-11-21T14:07:12;11.65;;;8.68;;
80621;SDS011;69980;51.914;7.526;2023-11-21T14:09:38;10.88;;;8.80;;
80621;SDS011;69980;51.914;7.526;2023-11-21T14:12:03;13.52;;;9.57;;
80621;SDS011;69980;51.914;7.526;2023-11-21T14:14:28;13.52;;;8.95;;
80621;SDS011;69980;51.914;7.526;2023-11-21T14:16:54;11.88;;;9.52;;
80621;SDS011;69980;51.914;7.526;2023-11-21T14:19:19;14.02;;;10.05;;
80621;SDS011;69980;51.914;7.526;2023-11-21T14:21:44;15.63;;;10.40;;
80621;SDS011;69980;51.914;7.526;2023-11-21T14:24:14;11.27;;;8.48;;
80621;SDS011;69980;51.914;7.526;2023-11-21T14:26:40;10.45;;;7.82;;
80621;SDS011;69980;51.914;7.526;2023-11-21T14:29:06;10.55;;;7.78;;
80621;SDS011;69980;51.914;7.526;2023-11-21T14:31:31;9.90;;;8.00;;
80621;SDS011;69980;51.914;7.526;2023-11-21T14:33:57;11.10;;;8.48;;
80621;SDS011;69980;51.914;7.526;2023-11-21T14:36:22;10.02;;;7.35;;
80621;SDS011;69980;51.914;7.526;2023-11-21T14:38:47;8.48;;;6.68;;